createdAt,value
2023-04-19T00:01:01.717Z,30.70
2023-04-19T00:03:30.986Z,30.17
2023-04-19T00:06:03.640Z,30.65
2023-04-19T00:08:30.628Z,30.38
2023-04-19T00:10:57.571Z,30.15
2023-04-19T00:13:24.889Z,29.02
2023-04-19T00:15:51.721Z,29.17
2023-04-19T00:18:19.576Z,30.30
2023-04-19T00:20:49.512Z,29.90
2023-04-19T00:23:19.840Z,29.42
2023-04-19T00:25:48.548Z,30.13
2023-04-19T00:28:15.780Z,29.40
2023-04-19T00:30:43.536Z,29.60
2023-04-19T00:33:15.190Z,29.63
2023-04-19T00:35:42.513Z,30.00
2023-04-19T00:38:11.643Z,27.67
2023-04-19T00:40:39.745Z,30.25
2023-04-19T00:43:06.635Z,30.17
2023-04-19T00:45:35.802Z,29.17
2023-04-19T00:48:06.645Z,29.50
2023-04-19T00:50:36.095Z,30.35
2023-04-19T00:53:04.537Z,28.58
2023-04-19T00:55:32.157Z,29.95
2023-04-19T00:58:00.164Z,29.52
2023-04-19T01:00:29.202Z,29.23
2023-04-19T01:02:58.565Z,29.23
2023-04-19T01:05:25.683Z,30.08
2023-04-19T01:07:52.627Z,29.55
2023-04-19T01:10:19.491Z,30.52
2023-04-19T01:12:46.353Z,31.40
2023-04-19T01:15:13.350Z,29.88
2023-04-19T01:17:41.152Z,30.10
2023-04-19T01:20:08.662Z,29.95
2023-04-19T01:22:38.101Z,30.95
2023-04-19T01:25:05.695Z,30.90
2023-04-19T01:27:32.747Z,31.95
2023-04-19T01:30:02.723Z,29.35
2023-04-19T01:32:29.633Z,30.67
2023-04-19T01:34:57.676Z,30.88
2023-04-19T01:37:26.626Z,30.90
2023-04-19T01:39:56.681Z,31.92
2023-04-19T01:42:23.609Z,32.00
2023-04-19T01:44:50.583Z,31.40
2023-04-19T01:47:18.489Z,31.45
2023-04-19T01:49:45.487Z,32.00
2023-04-19T01:52:13.378Z,33.08
2023-04-19T01:54:54.409Z,31.05
2023-04-19T01:57:25.899Z,32.42
2023-04-19T01:59:56.821Z,31.02
2023-04-19T02:02:46.512Z,31.23
2023-04-19T02:05:37.694Z,30.73
2023-04-19T02:08:09.053Z,31.08
2023-04-19T02:10:36.213Z,30.60
2023-04-19T02:13:03.204Z,30.88
2023-04-19T02:15:32.023Z,31.58
2023-04-19T02:18:00.406Z,28.88
2023-04-19T02:20:29.964Z,29.48
2023-04-19T02:22:57.299Z,30.10
2023-04-19T02:25:24.591Z,29.80
2023-04-19T02:27:52.177Z,29.67
2023-04-19T02:30:22.992Z,29.10
2023-04-19T02:32:51.843Z,28.75
2023-04-19T02:35:18.835Z,29.08
2023-04-19T02:37:45.839Z,28.63
2023-04-19T02:40:16.586Z,29.30
2023-04-19T02:42:43.805Z,29.17
2023-04-19T02:45:11.041Z,28.95
2023-04-19T02:47:38.009Z,29.13
2023-04-19T02:50:06.133Z,29.55
2023-04-19T02:52:36.560Z,28.70
2023-04-19T02:55:05.192Z,29.45
2023-04-19T02:57:32.268Z,28.45
2023-04-19T02:59:59.244Z,27.77
2023-04-19T03:02:27.499Z,28.88
2023-04-19T03:04:55.867Z,28.08
2023-04-19T03:07:24.280Z,28.88
2023-04-19T03:09:51.124Z,28.48
2023-04-19T03:12:20.930Z,27.13
2023-04-19T03:14:56.982Z,27.95
2023-04-19T03:17:25.425Z,27.17
2023-04-19T03:19:53.937Z,26.48
2023-04-19T03:22:21.700Z,26.88
2023-04-19T03:24:50.112Z,27.42
2023-04-19T03:27:22.160Z,26.58
2023-04-19T03:30:01.111Z,26.55
2023-04-19T03:32:32.172Z,26.15
2023-04-19T03:34:59.522Z,25.40
2023-04-19T03:37:28.348Z,27.30
2023-04-19T03:40:22.344Z,27.55
2023-04-19T03:42:50.953Z,27.02
2023-04-19T03:45:25.583Z,26.55
2023-04-19T03:47:52.721Z,27.15
2023-04-19T03:50:20.463Z,27.10
2023-04-19T03:52:51.218Z,26.65
2023-04-19T03:55:19.633Z,28.02
2023-04-19T03:57:46.813Z,27.27
2023-04-19T04:00:22.167Z,27.50
2023-04-19T04:02:57.418Z,26.70
2023-04-19T04:05:26.997Z,28.35
2023-04-19T04:08:03.738Z,27.73
2023-04-19T04:10:33.719Z,28.23
2023-04-19T04:22:12.026Z,28.38
2023-04-19T04:24:43.309Z,28.27
2023-04-19T04:27:33.948Z,27.02
2023-04-19T04:30:02.089Z,28.33
2023-04-19T04:32:37.282Z,27.98
2023-04-19T04:35:07.924Z,28.00
2023-04-19T04:37:49.900Z,27.27
2023-04-19T04:40:19.026Z,27.17
2023-04-19T04:42:47.278Z,29.23
2023-04-19T04:45:18.133Z,28.02
2023-04-19T04:47:46.496Z,28.08
2023-04-19T04:50:20.533Z,28.70
2023-04-19T04:52:58.147Z,28.02
2023-04-19T04:55:29.348Z,28.80
2023-04-19T04:57:59.099Z,27.92
2023-04-19T05:01:05.390Z,27.38
2023-04-19T05:03:38.458Z,28.45
2023-04-19T05:06:13.385Z,29.27
2023-04-19T05:08:41.760Z,30.40
2023-04-19T05:11:19.034Z,29.17
2023-04-19T05:13:52.884Z,28.38
2023-04-19T05:16:20.441Z,28.50
2023-04-19T05:19:14.684Z,28.23
2023-04-19T05:21:51.706Z,28.25
2023-04-19T05:24:21.960Z,28.58
2023-04-19T05:26:50.742Z,29.52
2023-04-19T05:29:18.375Z,29.40
2023-04-19T05:31:54.914Z,29.23
2023-04-19T05:34:26.503Z,29.02
2023-04-19T05:36:56.183Z,28.15
2023-04-19T05:39:23.013Z,28.83
2023-04-19T05:41:51.388Z,29.38
2023-04-19T05:44:19.571Z,29.23
2023-04-19T05:46:46.676Z,28.13
2023-04-19T05:49:18.463Z,29.48
2023-04-19T05:52:00.481Z,28.58
2023-04-19T05:54:45.223Z,28.90
2023-04-19T05:57:12.371Z,29.35
2023-04-19T05:59:39.479Z,27.70
2023-04-19T06:02:07.562Z,28.48
2023-04-19T06:04:36.399Z,29.95
2023-04-19T06:07:06.109Z,28.77
2023-04-19T06:09:34.988Z,29.83
2023-04-19T06:12:03.439Z,29.42
2023-04-19T06:14:32.357Z,28.17
2023-04-19T06:17:03.754Z,28.52
2023-04-19T06:19:35.751Z,28.08
2023-04-19T06:22:04.551Z,29.20
2023-04-19T06:24:36.127Z,27.85
2023-04-19T06:27:04.201Z,28.08
2023-04-19T06:29:31.997Z,27.80
2023-04-19T06:32:02.091Z,27.20
2023-04-19T06:34:35.220Z,29.35
2023-04-19T06:37:05.564Z,26.05
2023-04-19T06:39:38.560Z,27.40
2023-04-19T06:42:08.276Z,27.27
2023-04-19T06:44:36.068Z,28.25
2023-04-19T06:47:03.983Z,27.67
2023-04-19T06:49:31.401Z,26.90
2023-04-19T06:51:59.878Z,26.42
2023-04-19T06:54:26.813Z,25.58
2023-04-19T06:56:53.719Z,25.02
2023-04-19T06:59:22.769Z,25.60
2023-04-19T07:01:53.959Z,25.20
2023-04-19T07:04:22.205Z,22.83
2023-04-19T07:06:49.960Z,23.90
2023-04-19T07:09:17.218Z,25.92
2023-04-19T07:11:44.004Z,22.65
2023-04-19T07:14:11.654Z,22.27
2023-04-19T07:16:39.480Z,22.27
2023-04-19T07:19:06.299Z,21.10
2023-04-19T07:21:35.092Z,20.05
2023-04-19T07:24:02.499Z,21.63
2023-04-19T07:26:31.404Z,20.75
2023-04-19T07:28:58.588Z,19.92
2023-04-19T07:31:29.221Z,21.27
2023-04-19T07:33:58.080Z,20.58
2023-04-19T07:36:28.557Z,20.63
2023-04-19T07:38:57.997Z,21.38
2023-04-19T07:41:24.866Z,19.98
2023-04-19T07:43:51.961Z,19.13
2023-04-19T07:46:18.960Z,20.75
2023-04-19T07:48:46.464Z,19.85
2023-04-19T07:51:16.774Z,19.95
2023-04-19T07:53:51.152Z,20.48
2023-04-19T07:56:20.174Z,20.30
2023-04-19T07:58:56.556Z,19.63
2023-04-19T08:01:32.881Z,19.30
2023-04-19T08:04:00.018Z,19.17
2023-04-19T08:06:27.112Z,19.52
2023-04-19T08:08:55.003Z,19.38
2023-04-19T08:11:22.223Z,19.63
2023-04-19T08:14:02.891Z,18.38
2023-04-19T08:19:05.794Z,18.17
2023-04-19T08:21:40.795Z,18.10
2023-04-19T08:24:10.991Z,17.65
2023-04-19T08:26:39.171Z,17.05
2023-04-19T08:29:07.525Z,17.60
2023-04-19T08:31:35.761Z,16.70
2023-04-19T08:34:07.138Z,16.63
2023-04-19T08:36:41.008Z,15.95
2023-04-19T08:39:24.698Z,16.33
2023-04-19T08:42:13.482Z,17.38
2023-04-19T08:48:01.191Z,17.38
2023-04-19T08:50:38.830Z,133.60
2023-04-19T08:53:24.879Z,17.55
2023-04-19T09:01:51.082Z,17.52
2023-04-19T09:04:35.828Z,17.98
2023-04-19T09:07:03.590Z,16.48
2023-04-19T09:12:03.081Z,17.00
2023-04-19T09:14:30.563Z,15.00
2023-04-19T09:17:17.309Z,15.63
2023-04-19T09:19:49.365Z,16.27
2023-04-19T09:22:16.615Z,14.75
2023-04-19T09:27:15.069Z,13.82
2023-04-19T09:29:42.276Z,15.02
2023-04-19T09:32:11.156Z,15.13
2023-04-19T09:35:00.444Z,15.25
2023-04-19T09:39:57.553Z,14.35
2023-04-19T09:42:45.338Z,15.77
2023-04-19T09:48:09.711Z,13.88
2023-04-19T09:50:58.308Z,15.23
2023-04-19T09:53:30.743Z,14.43
2023-04-19T09:56:02.099Z,15.00
2023-04-19T10:01:16.585Z,13.27
2023-04-19T10:03:49.344Z,13.23
2023-04-19T10:11:51.296Z,13.27
2023-04-19T10:14:27.903Z,12.90
2023-04-19T10:16:56.865Z,12.73
2023-04-19T10:19:25.086Z,12.77
2023-04-19T10:21:52.229Z,13.02
2023-04-19T10:24:23.237Z,11.95
2023-04-19T10:27:11.481Z,11.63
2023-04-19T10:29:55.251Z,11.25
2023-04-19T10:32:24.800Z,11.50
2023-04-19T10:34:55.071Z,12.00
2023-04-19T10:37:24.926Z,10.98
2023-04-19T10:39:52.336Z,10.80
2023-04-19T10:42:19.373Z,10.88
2023-04-19T10:45:23.822Z,10.25
2023-04-19T10:47:52.520Z,9.75
2023-04-19T10:50:24.184Z,10.10
2023-04-19T10:52:51.016Z,9.53
2023-04-19T10:55:20.862Z,9.75
2023-04-19T10:58:07.493Z,10.07
2023-04-19T11:00:36.200Z,9.85
2023-04-19T11:03:50.617Z,10.50
2023-04-19T11:06:21.468Z,10.88
2023-04-19T11:08:51.601Z,10.45
2023-04-19T11:11:19.569Z,10.10
2023-04-19T11:13:48.567Z,10.15
2023-04-19T11:16:17.707Z,10.50
2023-04-19T11:18:46.151Z,10.88
2023-04-19T11:21:17.128Z,10.02
2023-04-19T11:23:44.301Z,9.95
2023-04-19T11:26:12.724Z,9.95
2023-04-19T11:28:39.869Z,10.30
2023-04-19T11:31:07.504Z,10.10
2023-04-19T11:33:37.312Z,10.38
2023-04-19T11:36:54.892Z,9.57
2023-04-19T11:39:23.937Z,9.43
2023-04-19T11:41:52.913Z,9.23
2023-04-19T11:44:20.675Z,9.70
2023-04-19T11:47:07.616Z,10.05
2023-04-19T11:49:51.739Z,10.02
2023-04-19T11:52:24.868Z,9.50
2023-04-19T11:54:53.739Z,9.32
2023-04-19T11:57:53.263Z,9.63
2023-04-19T12:00:46.946Z,10.40
2023-04-19T12:03:15.967Z,9.75
2023-04-19T12:06:00.110Z,10.00
2023-04-19T12:08:57.105Z,10.48
2023-04-19T12:11:46.360Z,10.40
2023-04-19T12:14:16.683Z,9.95
2023-04-19T12:16:46.694Z,10.27
2023-04-19T12:19:20.739Z,10.38
2023-04-19T12:21:49.038Z,10.00
2023-04-19T12:24:19.077Z,9.13
2023-04-19T12:26:58.969Z,10.27
2023-04-19T12:29:28.596Z,9.20
2023-04-19T12:31:59.513Z,9.52
2023-04-19T12:34:32.547Z,9.10
2023-04-19T12:36:59.490Z,8.35
2023-04-19T12:39:28.693Z,8.27
2023-04-19T12:42:25.824Z,8.32
2023-04-19T12:45:29.141Z,8.13
2023-04-19T12:47:59.168Z,7.35
2023-04-19T12:50:29.315Z,7.65
2023-04-19T12:52:56.513Z,6.95
2023-04-19T12:55:25.959Z,8.07
2023-04-19T12:57:54.892Z,8.18
2023-04-19T13:00:23.085Z,8.40
2023-04-19T13:02:54.222Z,8.50
2023-04-19T13:05:21.395Z,7.97
2023-04-19T13:07:48.672Z,8.07
2023-04-19T13:10:18.209Z,7.30
2023-04-19T13:12:46.195Z,7.25
2023-04-19T13:17:59.401Z,8.05
2023-04-19T13:20:27.464Z,7.57
2023-04-19T13:22:59.624Z,7.18
2023-04-19T13:25:30.340Z,7.28
2023-04-19T13:27:58.208Z,7.07
2023-04-19T13:30:25.614Z,6.07
2023-04-19T13:32:57.874Z,6.25
2023-04-19T13:35:26.161Z,5.93
2023-04-19T13:37:54.205Z,6.60
2023-04-19T13:40:24.637Z,6.20
2023-04-19T13:42:54.314Z,6.43
2023-04-19T13:45:21.392Z,6.07
2023-04-19T13:47:48.796Z,6.10
2023-04-19T13:50:15.713Z,6.55
2023-04-19T13:52:42.712Z,6.90
2023-04-19T13:55:11.118Z,6.43
2023-04-19T14:00:25.771Z,6.88
2023-04-19T14:02:56.336Z,6.78
2023-04-19T14:05:23.437Z,6.30
2023-04-19T14:07:56.184Z,5.50
2023-04-19T14:10:26.225Z,5.78
2023-04-19T14:12:53.381Z,4.93
2023-04-19T14:15:25.571Z,4.85
2023-04-19T14:17:56.324Z,4.68
2023-04-19T14:20:24.996Z,4.30
2023-04-19T14:22:56.221Z,4.05
2023-04-19T14:25:26.788Z,3.85
2023-04-19T14:27:55.645Z,3.20
2023-04-19T14:30:25.993Z,3.35
2023-04-19T14:32:54.712Z,3.58
2023-04-19T14:35:21.940Z,3.65
2023-04-19T14:37:50.075Z,3.80
2023-04-19T14:40:20.691Z,3.65
2023-04-19T14:45:34.798Z,3.38
2023-04-19T14:48:02.705Z,3.25
2023-04-19T14:50:30.910Z,3.40
2023-04-19T14:52:57.798Z,3.78
2023-04-19T14:55:28.036Z,3.63
2023-04-19T14:57:55.101Z,3.47
2023-04-19T15:00:23.259Z,3.50
2023-04-19T15:02:54.066Z,3.65
2023-04-19T15:05:23.984Z,3.63
2023-04-19T15:07:51.050Z,3.80
2023-04-19T15:10:18.686Z,3.40
2023-04-19T15:12:48.937Z,4.03
2023-04-19T15:15:24.442Z,3.60
2023-04-19T15:18:20.051Z,3.60
2023-04-19T15:20:48.981Z,3.65
2023-04-19T15:23:36.739Z,4.68
2023-04-19T15:28:35.322Z,3.28
2023-04-19T15:31:04.249Z,3.38
2023-04-19T15:33:31.400Z,3.22
2023-04-19T15:35:59.056Z,3.50
2023-04-19T15:38:27.975Z,3.33
2023-04-19T15:40:56.539Z,3.45
2023-04-19T15:43:25.919Z,3.15
2023-04-19T15:45:53.058Z,3.38
2023-04-19T15:48:23.856Z,3.13
2023-04-19T15:51:16.788Z,3.72
2023-04-19T15:56:14.027Z,3.33
2023-04-19T15:58:43.056Z,3.55
2023-04-19T16:01:16.292Z,2.90
2023-04-19T16:03:45.416Z,3.20
2023-04-19T16:06:15.316Z,3.30
2023-04-19T16:08:48.043Z,3.67
2023-04-19T16:11:20.079Z,3.00
2023-04-19T16:13:53.890Z,3.10
2023-04-19T16:16:22.908Z,3.47
2023-04-19T16:18:53.546Z,3.45
2023-04-19T16:21:20.546Z,3.28
2023-04-19T16:23:52.816Z,3.50
2023-04-19T16:26:19.886Z,3.75
2023-04-19T16:28:47.337Z,3.10
2023-04-19T16:31:15.692Z,3.35
2023-04-19T16:33:42.655Z,3.42
2023-04-19T16:36:14.420Z,3.55
2023-04-19T16:41:12.889Z,3.25
2023-04-19T16:43:39.814Z,3.65
2023-04-19T16:46:07.580Z,3.42
2023-04-19T16:48:34.668Z,7.82
2023-04-19T16:51:02.708Z,3.58
2023-04-19T16:53:31.490Z,3.65
2023-04-19T16:56:00.251Z,3.60
2023-04-19T17:01:10.167Z,4.18
2023-04-19T17:03:41.077Z,3.78
2023-04-19T17:06:09.435Z,4.03
2023-04-19T17:08:40.420Z,3.50
2023-04-19T17:11:10.068Z,3.13
2023-04-19T17:13:41.181Z,3.80
2023-04-19T17:16:15.925Z,3.83
2023-04-19T17:21:25.983Z,4.13
2023-04-19T17:23:53.912Z,4.07
2023-04-19T17:26:28.091Z,3.72
2023-04-19T17:29:03.321Z,4.07
2023-04-19T17:31:37.973Z,4.10
2023-04-19T17:34:12.085Z,3.67
2023-04-19T17:37:44.687Z,4.32
2023-04-19T17:40:12.923Z,4.65
2023-04-19T17:42:45.076Z,5.07
2023-04-19T17:45:14.448Z,4.70
2023-04-19T17:47:44.387Z,5.00
2023-04-19T17:50:13.790Z,4.75
2023-04-19T17:52:40.842Z,23.20
2023-04-19T17:55:09.133Z,8.55
2023-04-19T17:57:40.154Z,4.88
2023-04-19T18:00:10.694Z,5.47
2023-04-19T18:02:37.947Z,5.18
2023-04-19T18:05:09.053Z,5.20
2023-04-19T18:07:40.024Z,5.90
2023-04-19T18:10:12.856Z,5.78
2023-04-19T18:12:45.632Z,5.93
2023-04-19T18:15:14.794Z,5.43
2023-04-19T18:17:41.888Z,5.90
2023-04-19T18:20:16.092Z,5.35
2023-04-19T18:22:47.695Z,5.28
2023-04-19T18:25:14.895Z,5.60
2023-04-19T18:27:43.024Z,5.70
2023-04-19T18:30:11.804Z,5.72
2023-04-19T18:32:39.356Z,6.18
2023-04-19T18:35:10.343Z,6.32
2023-04-19T18:37:39.152Z,7.90
2023-04-19T18:40:10.198Z,6.25
2023-04-19T18:42:37.518Z,5.55
2023-04-19T18:45:04.936Z,5.65
2023-04-19T18:47:33.911Z,5.97
2023-04-19T18:50:05.185Z,5.50
2023-04-19T18:52:36.782Z,6.13
2023-04-19T18:55:06.325Z,5.95
2023-04-19T18:57:35.472Z,5.43
2023-04-19T19:00:05.663Z,5.97
2023-04-19T19:02:34.959Z,5.45
2023-04-19T19:05:02.669Z,6.13
2023-04-19T19:07:36.826Z,5.65
2023-04-19T19:10:18.199Z,8.48
2023-04-19T19:12:48.214Z,5.97
2023-04-19T19:15:17.926Z,6.15
2023-04-19T19:17:49.263Z,5.97
2023-04-19T19:20:21.140Z,6.35
2023-04-19T19:22:48.862Z,5.90
2023-04-19T19:25:16.762Z,5.93
2023-04-19T19:28:04.912Z,5.85
2023-04-19T19:30:34.599Z,5.38
2023-04-19T19:33:04.587Z,5.45
2023-04-19T19:35:31.878Z,5.88
2023-04-19T19:38:00.078Z,5.97
2023-04-19T19:40:31.170Z,5.70
2023-04-19T19:43:00.145Z,5.15
2023-04-19T19:45:29.110Z,6.03
2023-04-19T19:48:01.139Z,5.85
2023-04-19T19:51:01.006Z,5.72
2023-04-19T19:53:22.136Z,5.28
2023-04-19T19:55:49.198Z,5.30
2023-04-19T19:58:42.968Z,8.95
2023-04-19T20:01:06.301Z,5.65
2023-04-19T20:03:37.787Z,5.20
2023-04-19T20:07:03.027Z,5.47
2023-04-19T20:09:03.590Z,5.10
2023-04-19T20:11:31.987Z,5.70
2023-04-19T20:13:58.972Z,5.63
2023-04-19T20:16:26.439Z,5.35
2023-04-19T20:18:54.822Z,5.20
2023-04-19T20:21:23.513Z,4.68
2023-04-19T20:23:52.917Z,5.15
2023-04-19T20:26:19.987Z,4.28
2023-04-19T20:28:50.356Z,4.05
2023-04-19T20:31:22.649Z,4.55
2023-04-19T20:33:53.492Z,4.15
2023-04-19T20:36:24.866Z,4.10
2023-04-19T20:38:53.006Z,4.20
2023-04-19T20:41:22.995Z,4.10
2023-04-19T20:43:50.125Z,4.43
2023-04-19T20:46:17.100Z,4.25
2023-04-19T20:48:44.136Z,4.13
2023-04-19T20:51:12.680Z,3.83
2023-04-19T20:53:39.663Z,4.25
2023-04-19T20:56:06.614Z,3.90
2023-04-19T20:58:35.063Z,4.47
2023-04-19T21:01:02.013Z,3.95
2023-04-19T21:03:29.068Z,4.25
2023-04-19T21:05:56.124Z,3.80
2023-04-19T21:08:24.206Z,3.90
2023-04-19T21:10:54.297Z,3.65
2023-04-19T21:13:21.231Z,3.50
2023-04-19T21:15:48.069Z,3.70
2023-04-19T21:18:15.029Z,3.60
2023-04-19T21:20:43.173Z,3.60
2023-04-19T21:23:10.116Z,4.00
2023-04-19T21:25:37.349Z,3.45
2023-04-19T21:28:04.388Z,3.30
2023-04-19T21:30:31.605Z,3.42
2023-04-19T21:32:58.729Z,3.13
2023-04-19T21:35:26.104Z,4.53
2023-04-19T21:37:53.493Z,3.47
2023-04-19T21:40:20.484Z,3.50
2023-04-19T21:42:47.344Z,4.50
2023-04-19T21:45:14.274Z,3.60
2023-04-19T21:47:41.342Z,3.90
2023-04-19T21:50:08.977Z,3.40
2023-04-19T21:52:38.428Z,3.72
2023-04-19T21:55:07.040Z,3.65
2023-04-19T21:57:37.603Z,3.47
2023-04-19T22:00:09.263Z,4.05
2023-04-19T22:02:42.122Z,3.70
2023-04-19T22:05:09.345Z,3.80
2023-04-19T22:07:40.179Z,3.50
2023-04-19T22:10:08.862Z,3.85
2023-04-19T22:12:48.298Z,4.07
2023-04-19T22:16:15.288Z,3.88
2023-04-19T22:18:43.495Z,4.47
2023-04-19T22:21:12.927Z,4.28
2023-04-19T22:23:39.832Z,4.05
2023-04-19T22:26:06.708Z,4.20
2023-04-19T22:28:39.140Z,4.10
2023-04-19T22:31:07.198Z,3.95
2023-04-19T22:33:35.195Z,3.88
2023-04-19T22:36:04.043Z,3.72
2023-04-19T22:38:32.128Z,4.75
2023-04-19T22:41:00.068Z,3.65
2023-04-19T22:43:28.162Z,4.18
2023-04-19T22:45:55.089Z,4.43
2023-04-19T22:48:21.998Z,4.07
2023-04-19T22:50:50.313Z,4.40
2023-04-19T22:53:17.223Z,4.15
2023-04-19T22:55:46.436Z,3.85
2023-04-19T22:58:14.756Z,4.53
2023-04-19T23:00:41.624Z,3.90
2023-04-19T23:03:10.578Z,4.32
2023-04-19T23:05:39.352Z,4.10
2023-04-19T23:08:07.163Z,3.97
2023-04-19T23:10:38.107Z,4.55
2023-04-19T23:13:05.930Z,4.68
2023-04-19T23:15:37.712Z,4.30
2023-04-19T23:18:04.952Z,4.13
2023-04-19T23:20:32.116Z,4.30
2023-04-19T23:22:59.614Z,4.25
2023-04-19T23:25:32.702Z,4.03
2023-04-19T23:28:30.098Z,4.68
2023-04-19T23:30:57.126Z,4.88
2023-04-19T23:33:24.094Z,4.53
2023-04-19T23:35:52.175Z,4.25
2023-04-19T23:38:19.251Z,4.55
2023-04-19T23:40:46.457Z,4.32
2023-04-19T23:43:14.475Z,4.15
2023-04-19T23:45:42.458Z,4.22
2023-04-19T23:48:10.406Z,4.25
2023-04-19T23:50:37.454Z,4.45
2023-04-19T23:53:05.486Z,4.40
2023-04-19T23:55:32.564Z,4.43
2023-04-19T23:57:59.585Z,4.93
